createdAt,value
2022-08-03T00:02:24.434Z,2.60
2022-08-03T00:04:55.480Z,2.60
2022-08-03T00:07:26.172Z,2.90
2022-08-03T00:09:57.219Z,2.80
2022-08-03T00:12:27.971Z,2.80
2022-08-03T00:14:58.803Z,2.90
2022-08-03T00:17:29.638Z,2.50
2022-08-03T00:20:20.954Z,2.40
2022-08-03T00:23:00.496Z,2.30
2022-08-03T00:25:31.492Z,2.90
2022-08-03T00:28:02.503Z,3.00
2022-08-03T00:30:34.180Z,2.90
2022-08-03T00:33:05.605Z,2.60
2022-08-03T00:35:50.321Z,2.70
2022-08-03T00:38:22.138Z,2.60
2022-08-03T00:40:53.183Z,2.50
2022-08-03T00:43:27.905Z,2.70
2022-08-03T00:45:59.066Z,2.90
2022-08-03T00:48:33.358Z,2.80
2022-08-03T00:51:05.303Z,3.20
2022-08-03T00:53:38.071Z,2.50
2022-08-03T00:56:09.379Z,2.40
2022-08-03T00:58:40.273Z,2.60
2022-08-03T01:01:12.548Z,2.80
2022-08-03T01:03:44.045Z,2.80
2022-08-03T01:06:20.862Z,2.40
2022-08-03T01:09:00.748Z,2.60
2022-08-03T01:12:00.028Z,2.60
2022-08-03T01:14:38.636Z,2.70
2022-08-03T01:17:20.484Z,2.60
2022-08-03T01:20:01.847Z,2.30
2022-08-03T01:22:53.090Z,2.60
2022-08-03T01:25:36.418Z,2.60
2022-08-03T01:28:27.197Z,2.90
2022-08-03T01:31:02.684Z,2.70
2022-08-03T01:33:40.474Z,2.70
2022-08-03T01:36:14.942Z,3.10
2022-08-03T01:38:49.097Z,2.40
2022-08-03T01:41:22.451Z,2.60
2022-08-03T01:44:28.487Z,2.60
2022-08-03T01:46:49.236Z,2.50
2022-08-03T01:49:21.458Z,2.60
2022-08-03T01:51:57.850Z,2.60
2022-08-03T01:54:38.933Z,2.30
2022-08-03T01:57:11.008Z,2.50
2022-08-03T01:59:43.299Z,2.60
2022-08-03T02:02:33.295Z,2.70
2022-08-03T02:05:10.799Z,3.10
2022-08-03T02:07:43.817Z,2.70
2022-08-03T02:10:34.841Z,2.40
2022-08-03T02:13:09.037Z,2.50
2022-08-03T02:15:41.099Z,2.20
2022-08-03T02:18:13.807Z,3.10
2022-08-03T02:20:46.036Z,3.00
2022-08-03T02:23:18.394Z,2.70
2022-08-03T02:25:54.099Z,2.40
2022-08-03T02:28:32.816Z,2.60
2022-08-03T02:31:10.682Z,2.60
2022-08-03T02:33:50.266Z,2.40
2022-08-03T02:36:25.541Z,2.60
2022-08-03T02:39:03.539Z,2.80
2022-08-03T02:41:39.446Z,2.60
2022-08-03T02:44:13.656Z,2.50
2022-08-03T02:46:48.331Z,2.40
2022-08-03T02:49:42.172Z,2.50
2022-08-03T02:52:16.022Z,2.50
2022-08-03T02:57:20.493Z,2.20
2022-08-03T02:59:52.811Z,2.50
2022-08-03T03:02:25.224Z,2.60
2022-08-03T03:05:51.764Z,2.50
2022-08-03T03:07:53.018Z,2.80
2022-08-03T03:10:26.769Z,2.60
2022-08-03T03:13:01.733Z,2.50
2022-08-03T03:15:35.906Z,2.50
2022-08-03T03:18:10.150Z,2.60
2022-08-03T03:20:42.409Z,2.80
2022-08-03T03:23:14.609Z,3.30
2022-08-03T03:25:46.316Z,2.50
2022-08-03T03:28:17.313Z,2.60
2022-08-03T03:30:52.568Z,2.20
2022-08-03T03:33:24.813Z,2.60
2022-08-03T03:35:56.542Z,2.10
2022-08-03T03:38:28.065Z,2.40
2022-08-03T03:40:59.313Z,2.30
2022-08-03T03:43:30.914Z,2.70
2022-08-03T03:46:02.469Z,2.30
2022-08-03T03:48:33.258Z,2.30
2022-08-03T03:51:05.231Z,2.40
2022-08-03T03:53:36.208Z,2.40
2022-08-03T03:56:07.273Z,2.70
2022-08-03T03:58:38.023Z,2.70
2022-08-03T04:01:09.963Z,2.80
2022-08-03T04:03:41.074Z,2.70
2022-08-03T04:06:30.813Z,2.00
2022-08-03T04:09:20.770Z,2.30
2022-08-03T04:11:55.262Z,2.40
2022-08-03T04:14:30.830Z,2.80
2022-08-03T04:17:05.257Z,2.80
2022-08-03T04:19:41.735Z,2.40
2022-08-03T04:22:18.944Z,3.00
2022-08-03T04:24:53.281Z,2.40
2022-08-03T04:27:27.079Z,2.60
2022-08-03T04:30:00.760Z,2.60
2022-08-03T04:32:32.994Z,2.40
2022-08-03T04:35:03.922Z,2.60
2022-08-03T04:37:40.232Z,2.60
2022-08-03T04:40:15.436Z,2.80
2022-08-03T04:42:48.163Z,2.80
2022-08-03T04:45:20.706Z,3.00
2022-08-03T04:47:53.403Z,2.90
2022-08-03T04:50:24.692Z,2.70
2022-08-03T04:52:56.879Z,2.40
2022-08-03T04:55:31.756Z,2.40
2022-08-03T04:58:03.657Z,2.60
2022-08-03T05:00:34.766Z,2.80
2022-08-03T05:03:20.237Z,2.80
2022-08-03T05:06:09.822Z,3.10
2022-08-03T05:08:46.979Z,2.80
2022-08-03T05:11:20.093Z,2.60
2022-08-03T05:13:51.105Z,3.20
2022-08-03T05:16:22.223Z,2.60
2022-08-03T05:18:53.204Z,2.80
2022-08-03T05:21:24.224Z,3.00
2022-08-03T05:23:55.062Z,2.70
2022-08-03T05:26:26.070Z,2.40
2022-08-03T05:28:57.621Z,2.70
2022-08-03T05:31:28.540Z,3.00
2022-08-03T05:33:59.533Z,2.60
2022-08-03T05:36:30.671Z,2.60
2022-08-03T05:39:02.866Z,2.70
2022-08-03T05:41:36.979Z,2.90
2022-08-03T05:44:08.218Z,2.50
2022-08-03T05:46:39.183Z,2.40
2022-08-03T05:49:10.339Z,2.70
2022-08-03T05:51:41.399Z,2.40
2022-08-03T05:54:12.509Z,2.30
2022-08-03T05:56:43.416Z,2.80
2022-08-03T05:59:37.087Z,3.00
2022-08-03T06:02:05.716Z,2.80
2022-08-03T06:04:36.751Z,2.50
2022-08-03T06:07:07.593Z,2.60
2022-08-03T06:10:35.272Z,2.90
2022-08-03T06:12:30.452Z,2.50
2022-08-03T06:15:01.369Z,2.60
2022-08-03T06:17:37.298Z,2.70
2022-08-03T06:20:10.443Z,2.70
2022-08-03T06:22:49.097Z,2.80
2022-08-03T06:25:22.547Z,2.70
2022-08-03T06:27:53.485Z,2.30
2022-08-03T06:30:24.857Z,2.20
2022-08-03T06:32:55.795Z,2.50
2022-08-03T06:35:27.939Z,2.30
2022-08-03T06:37:59.051Z,2.60
2022-08-03T06:40:31.494Z,2.80
2022-08-03T06:43:04.326Z,2.40
2022-08-03T06:45:36.047Z,1.70
2022-08-03T06:48:09.228Z,1.90
2022-08-03T06:50:42.570Z,2.10
2022-08-03T06:53:19.790Z,1.70
2022-08-03T06:56:12.314Z,1.90
2022-08-03T06:58:43.511Z,1.90
2022-08-03T07:01:14.300Z,2.00
2022-08-03T07:03:52.503Z,1.60
2022-08-03T07:06:23.824Z,1.80
2022-08-03T07:08:59.186Z,1.50
2022-08-03T07:11:30.580Z,2.00
2022-08-03T07:14:01.558Z,1.80
2022-08-03T07:16:32.452Z,1.50
2022-08-03T07:19:03.340Z,1.60
2022-08-03T07:21:34.336Z,1.90
2022-08-03T07:24:05.932Z,1.80
2022-08-03T07:26:36.823Z,1.60
2022-08-03T07:29:14.768Z,1.70
2022-08-03T07:31:46.515Z,1.60
2022-08-03T07:34:18.037Z,1.70
2022-08-03T07:36:48.847Z,1.90
2022-08-03T07:39:20.012Z,1.60
2022-08-03T07:41:51.837Z,1.80
2022-08-03T07:44:23.026Z,1.40
2022-08-03T07:46:53.981Z,1.70
2022-08-03T07:49:28.102Z,1.70
2022-08-03T07:52:16.954Z,1.70
2022-08-03T07:54:48.588Z,1.70
2022-08-03T07:57:19.636Z,1.40
2022-08-03T08:00:01.704Z,1.90
2022-08-03T08:02:33.076Z,1.70
2022-08-03T08:05:05.922Z,1.70
2022-08-03T08:07:37.526Z,1.70
2022-08-03T08:10:11.101Z,1.60
2022-08-03T08:12:42.508Z,1.30
2022-08-03T08:15:13.463Z,1.60
2022-08-03T08:17:49.336Z,1.60
2022-08-03T08:20:23.813Z,1.70
2022-08-03T08:23:01.749Z,1.70
2022-08-03T08:25:34.061Z,1.80
2022-08-03T08:28:30.081Z,1.50
2022-08-03T08:30:56.415Z,1.90
2022-08-03T08:33:37.304Z,1.70
2022-08-03T08:36:18.269Z,1.50
2022-08-03T08:38:49.656Z,1.60
2022-08-03T08:41:40.636Z,1.60
2022-08-03T08:44:17.344Z,1.50
2022-08-03T08:46:49.060Z,1.70
2022-08-03T08:49:24.543Z,1.50
2022-08-03T08:52:00.712Z,1.60
2022-08-03T08:54:33.843Z,1.40
2022-08-03T08:57:21.374Z,2.20
2022-08-03T08:59:59.432Z,2.10
2022-08-03T09:02:32.657Z,1.60
2022-08-03T09:05:07.480Z,1.60
2022-08-03T09:07:38.961Z,1.50
2022-08-03T09:10:13.702Z,1.50
2022-08-03T09:12:47.636Z,1.50
2022-08-03T09:15:24.589Z,1.50
2022-08-03T09:17:57.025Z,1.50
2022-08-03T09:20:29.996Z,1.80
2022-08-03T09:23:19.131Z,1.50
2022-08-03T09:26:01.828Z,1.40
2022-08-03T09:28:59.942Z,1.70
2022-08-03T09:31:38.104Z,1.70
2022-08-03T09:34:13.848Z,1.80
2022-08-03T09:36:47.223Z,1.40
2022-08-03T09:39:40.180Z,2.40
2022-08-03T09:42:14.997Z,1.60
2022-08-03T09:44:47.435Z,1.50
2022-08-03T09:47:31.207Z,1.30
2022-08-03T09:50:04.139Z,1.40
2022-08-03T09:52:49.248Z,1.40
2022-08-03T09:56:33.318Z,1.50
2022-08-03T09:58:16.094Z,1.50
2022-08-03T10:00:58.954Z,1.30
2022-08-03T10:03:31.446Z,1.20
2022-08-03T10:06:19.478Z,1.40
2022-08-03T10:09:05.612Z,1.60
2022-08-03T10:11:41.585Z,1.40
2022-08-03T10:14:19.048Z,1.40
2022-08-03T10:16:50.899Z,1.40
2022-08-03T10:19:22.045Z,1.20
2022-08-03T10:21:58.647Z,1.40
2022-08-03T10:24:31.838Z,1.40
2022-08-03T10:27:05.714Z,1.70
2022-08-03T10:29:40.612Z,1.90
2022-08-03T10:32:19.688Z,1.90
2022-08-03T10:34:59.987Z,1.30
2022-08-03T10:37:34.284Z,1.30
2022-08-03T10:40:06.521Z,1.50
2022-08-03T10:42:38.210Z,1.60
2022-08-03T10:45:14.169Z,1.60
2022-08-03T10:47:45.430Z,1.80
2022-08-03T10:50:17.193Z,2.00
2022-08-03T10:52:59.309Z,1.40
2022-08-03T10:55:54.535Z,1.50
2022-08-03T10:58:53.514Z,1.50
2022-08-03T11:01:58.766Z,1.80
2022-08-03T11:04:31.813Z,1.40
2022-08-03T11:07:26.636Z,1.70
2022-08-03T11:09:58.373Z,1.90
2022-08-03T11:12:32.174Z,1.80
2022-08-03T11:15:06.570Z,1.40
2022-08-03T11:17:45.817Z,1.50
2022-08-03T11:20:18.030Z,1.60
2022-08-03T11:22:54.572Z,1.60
2022-08-03T11:25:53.559Z,1.50
2022-08-03T11:28:33.669Z,1.30
2022-08-03T11:33:00.475Z,1.60
2022-08-03T11:35:33.769Z,1.40
2022-08-03T11:38:15.006Z,1.60
2022-08-03T11:40:50.507Z,1.40
2022-08-03T11:43:47.854Z,1.40
2022-08-03T11:46:28.171Z,1.50
2022-08-03T11:49:11.011Z,1.30
2022-08-03T11:51:42.295Z,1.30
2022-08-03T11:54:13.276Z,1.40
2022-08-03T11:56:51.401Z,1.30
2022-08-03T11:59:42.252Z,1.50
2022-08-03T12:02:16.554Z,1.50
2022-08-03T12:04:54.364Z,1.60
2022-08-03T12:08:03.357Z,1.70
2022-08-03T12:10:19.039Z,1.50
2022-08-03T12:12:58.345Z,1.80
2022-08-03T12:15:32.487Z,1.20
2022-08-03T12:18:04.561Z,1.60
2022-08-03T12:20:38.349Z,1.60
2022-08-03T12:23:10.835Z,1.60
2022-08-03T12:25:44.068Z,1.40
2022-08-03T12:28:28.256Z,1.50
2022-08-03T12:31:09.476Z,1.70
2022-08-03T12:34:04.151Z,1.50
2022-08-03T12:39:08.613Z,1.40
2022-08-03T12:41:40.950Z,1.70
2022-08-03T12:44:12.652Z,1.60
2022-08-03T12:46:47.967Z,1.70
2022-08-03T12:49:19.769Z,1.50
2022-08-03T12:52:05.486Z,1.40
2022-08-03T12:54:38.565Z,1.40
2022-08-03T12:57:16.052Z,1.80
2022-08-03T12:59:53.381Z,1.70
2022-08-03T13:02:27.816Z,1.50
2022-08-03T13:05:00.250Z,1.70
2022-08-03T13:07:41.364Z,1.80
2022-08-03T13:10:31.384Z,2.00
2022-08-03T13:13:04.490Z,1.40
2022-08-03T13:15:39.633Z,1.40
2022-08-03T13:18:18.812Z,1.30
2022-08-03T13:20:49.789Z,1.80
2022-08-03T13:23:22.784Z,1.40
2022-08-03T13:25:55.013Z,1.50
2022-08-03T13:28:27.187Z,1.50
2022-08-03T13:30:58.327Z,1.50
2022-08-03T13:33:29.565Z,1.60
2022-08-03T13:36:00.432Z,1.40
2022-08-03T13:38:31.673Z,1.40
2022-08-03T13:41:05.224Z,1.60
2022-08-03T13:43:36.292Z,1.50
2022-08-03T13:46:15.692Z,1.50
2022-08-03T13:48:47.008Z,1.40
2022-08-03T13:51:22.477Z,1.60
2022-08-03T13:53:59.691Z,1.40
2022-08-03T13:56:31.145Z,1.30
2022-08-03T13:59:02.581Z,1.40
2022-08-03T14:01:54.109Z,1.20
2022-08-03T14:04:24.789Z,1.30
2022-08-03T14:06:55.809Z,1.30
2022-08-03T14:09:26.901Z,1.40
2022-08-03T14:12:08.416Z,1.40
2022-08-03T14:14:39.795Z,1.50
2022-08-03T14:17:11.420Z,1.70
2022-08-03T14:19:53.240Z,1.40
2022-08-03T14:24:55.222Z,1.80
2022-08-03T14:27:27.131Z,1.80
2022-08-03T14:30:01.439Z,1.60
2022-08-03T14:32:33.424Z,1.70
2022-08-03T14:35:04.656Z,1.60
2022-08-03T14:37:38.142Z,1.30
2022-08-03T14:40:10.824Z,1.60
2022-08-03T14:42:45.662Z,1.40
2022-08-03T14:45:20.302Z,1.40
2022-08-03T14:50:30.828Z,1.40
2022-08-03T14:50:51.357Z,1.30
2022-08-03T14:53:30.232Z,1.50
2022-08-03T14:56:01.932Z,1.40
2022-08-03T14:58:59.558Z,1.30
2022-08-03T15:02:04.419Z,1.30
2022-08-03T15:04:21.674Z,1.50
2022-08-03T15:06:52.556Z,1.30
2022-08-03T15:09:24.176Z,1.20
2022-08-03T15:11:55.164Z,0.90
2022-08-03T15:14:32.242Z,1.40
2022-08-03T15:17:04.416Z,1.30
2022-08-03T15:20:03.917Z,1.30
2022-08-03T15:22:34.622Z,1.20
2022-08-03T15:26:06.513Z,1.20
2022-08-03T15:28:10.017Z,1.00
2022-08-03T15:30:41.148Z,1.30
2022-08-03T15:33:12.276Z,1.10
2022-08-03T15:35:43.333Z,1.30
2022-08-03T15:38:14.891Z,1.20
2022-08-03T15:40:46.467Z,1.10
2022-08-03T15:43:21.719Z,1.20
2022-08-03T15:46:19.482Z,1.30
2022-08-03T15:48:44.663Z,1.10
2022-08-03T15:51:15.824Z,1.20
2022-08-03T15:53:46.969Z,1.20
2022-08-03T15:56:18.891Z,1.30
2022-08-03T15:59:04.173Z,1.20
2022-08-03T16:01:41.379Z,1.30
2022-08-03T16:04:12.778Z,1.30
2022-08-03T16:06:49.684Z,1.10
2022-08-03T16:09:43.074Z,1.40
2022-08-03T16:12:19.651Z,1.30
2022-08-03T16:14:53.384Z,1.50
2022-08-03T16:17:26.457Z,1.30
2022-08-03T16:20:05.112Z,1.30
2022-08-03T16:22:47.799Z,1.30
2022-08-03T16:25:20.776Z,1.20
2022-08-03T16:28:00.294Z,1.20
2022-08-03T16:30:38.707Z,1.10
2022-08-03T16:33:09.723Z,1.50
2022-08-03T16:35:40.755Z,1.20
2022-08-03T16:38:15.376Z,1.40
2022-08-03T16:40:52.346Z,1.30
2022-08-03T16:43:29.839Z,1.50
2022-08-03T16:46:00.760Z,1.30
2022-08-03T16:48:36.000Z,1.20
2022-08-03T16:51:07.065Z,1.20
2022-08-03T16:54:07.224Z,1.30
2022-08-03T16:56:29.471Z,1.40
2022-08-03T16:59:00.860Z,1.20
2022-08-03T17:01:35.707Z,1.30
2022-08-03T17:04:10.360Z,1.10
2022-08-03T17:06:45.420Z,1.00
2022-08-03T17:09:19.046Z,1.20
2022-08-03T17:11:53.132Z,2.10
2022-08-03T17:14:29.346Z,1.50
2022-08-03T17:17:02.589Z,1.20
2022-08-03T17:19:36.600Z,1.20
2022-08-03T17:22:12.847Z,1.50
2022-08-03T17:24:52.016Z,1.40
2022-08-03T17:30:19.047Z,1.60
2022-08-03T17:32:57.063Z,1.30
2022-08-03T17:35:34.674Z,1.30
2022-08-03T17:38:18.515Z,1.20
2022-08-03T17:40:52.519Z,1.80
2022-08-03T17:44:13.974Z,1.20
2022-08-03T17:46:19.686Z,1.60
2022-08-03T17:48:54.345Z,1.60
2022-08-03T17:51:35.084Z,1.50
2022-08-03T17:54:21.336Z,1.50
2022-08-03T17:57:21.982Z,1.40
2022-08-03T18:00:00.722Z,1.40
2022-08-03T18:03:03.388Z,1.70
2022-08-03T18:06:11.342Z,1.50
2022-08-03T18:08:29.902Z,1.60
2022-08-03T18:11:09.706Z,1.40
2022-08-03T18:13:53.521Z,1.60
2022-08-03T18:16:35.255Z,1.90
2022-08-03T18:19:13.462Z,1.60
2022-08-03T18:22:03.464Z,1.70
2022-08-03T18:24:35.805Z,1.80
2022-08-03T18:27:10.758Z,1.70
2022-08-03T18:29:43.730Z,1.70
2022-08-03T18:32:17.030Z,1.90
2022-08-03T18:35:07.788Z,2.00
2022-08-03T18:37:52.065Z,3.10
2022-08-03T18:40:25.164Z,1.90
2022-08-03T18:42:59.086Z,1.80
2022-08-03T18:45:55.790Z,2.10
2022-08-03T18:48:34.796Z,2.10
2022-08-03T18:51:24.353Z,2.00
2022-08-03T18:54:07.398Z,2.00
2022-08-03T18:56:48.099Z,2.10
2022-08-03T18:59:30.032Z,2.10
2022-08-03T19:02:09.190Z,1.90
2022-08-03T19:04:45.692Z,2.10
2022-08-03T19:09:58.105Z,1.90
2022-08-03T19:12:39.977Z,2.30
2022-08-03T19:15:15.657Z,2.00
2022-08-03T19:17:52.991Z,2.00
2022-08-03T19:20:26.002Z,2.10
2022-08-03T19:22:59.187Z,2.10
2022-08-03T19:25:35.078Z,2.40
2022-08-03T19:28:08.002Z,2.30
2022-08-03T19:30:40.818Z,2.00
2022-08-03T19:33:29.830Z,2.40
2022-08-03T19:36:01.344Z,2.60
2022-08-03T19:38:33.015Z,2.80
2022-08-03T19:41:06.640Z,2.60
2022-08-03T19:43:52.714Z,2.50
2022-08-03T19:46:30.858Z,3.10
2022-08-03T19:49:10.621Z,3.80
2022-08-03T19:52:01.960Z,3.70
2022-08-03T19:54:45.773Z,3.30
2022-08-03T19:57:29.476Z,2.70
2022-08-03T20:00:03.418Z,3.70
2022-08-03T20:02:35.140Z,4.00
2022-08-03T20:05:15.120Z,3.70
2022-08-03T20:07:48.598Z,3.60
2022-08-03T20:10:20.131Z,3.20
2022-08-03T20:12:51.167Z,3.80
2022-08-03T20:15:31.347Z,3.00
2022-08-03T20:18:02.777Z,2.70
2022-08-03T20:20:36.246Z,3.00
2022-08-03T20:23:12.510Z,3.20
2022-08-03T20:25:58.281Z,3.10
2022-08-03T20:28:50.147Z,2.90
2022-08-03T20:31:32.212Z,2.80
2022-08-03T20:34:09.086Z,3.00
2022-08-03T20:36:40.024Z,3.20
2022-08-03T20:39:10.872Z,2.70
2022-08-03T20:41:43.363Z,2.60
2022-08-03T20:44:14.282Z,2.50
2022-08-03T20:46:53.282Z,2.80
2022-08-03T20:49:45.667Z,2.30
2022-08-03T20:52:21.005Z,2.50
2022-08-03T20:54:58.324Z,2.80
2022-08-03T20:57:33.090Z,2.50
2022-08-03T21:00:09.968Z,2.70
2022-08-03T21:02:43.171Z,2.50
2022-08-03T21:05:14.330Z,3.10
2022-08-03T21:08:05.660Z,3.00
2022-08-03T21:10:42.048Z,2.80
2022-08-03T21:13:23.612Z,2.90
2022-08-03T21:16:11.353Z,2.50
2022-08-03T21:18:50.396Z,2.90
2022-08-03T21:21:24.326Z,3.70
2022-08-03T21:23:56.810Z,3.40
2022-08-03T21:26:33.014Z,3.10
2022-08-03T21:29:03.993Z,3.40
2022-08-03T21:31:34.892Z,3.20
2022-08-03T21:34:07.481Z,3.00
2022-08-03T21:36:39.277Z,2.70
2022-08-03T21:39:11.861Z,3.10
2022-08-03T21:41:42.965Z,3.10
2022-08-03T21:44:13.859Z,3.00
2022-08-03T21:46:45.254Z,2.90
2022-08-03T21:49:51.741Z,3.20
2022-08-03T21:52:08.633Z,2.70
2022-08-03T21:54:44.287Z,2.70
2022-08-03T21:57:21.385Z,2.20
2022-08-03T21:59:56.714Z,3.00
2022-08-03T22:02:31.532Z,2.70
2022-08-03T22:05:05.125Z,3.50
2022-08-03T22:07:37.932Z,3.30
2022-08-03T22:10:10.935Z,3.20
2022-08-03T22:12:42.914Z,3.00
2022-08-03T22:15:15.592Z,3.00
2022-08-03T22:17:55.127Z,3.00
2022-08-03T22:20:28.800Z,2.80
2022-08-03T22:23:03.435Z,3.20
2022-08-03T22:25:37.160Z,2.30
2022-08-03T22:28:12.107Z,2.10
2022-08-03T22:30:44.064Z,2.50
2022-08-03T22:33:17.840Z,2.90
2022-08-03T22:35:52.678Z,2.80
2022-08-03T22:38:26.302Z,2.60
2022-08-03T22:40:58.520Z,2.60
2022-08-03T22:43:29.920Z,2.00
2022-08-03T22:46:09.247Z,2.50
2022-08-03T22:51:13.184Z,1.90
2022-08-03T22:53:46.047Z,2.40
2022-08-03T22:56:17.295Z,2.60
2022-08-03T22:58:48.336Z,2.70
2022-08-03T23:01:24.214Z,2.50
2022-08-03T23:04:02.325Z,3.00
2022-08-03T23:06:36.962Z,2.50
2022-08-03T23:09:11.161Z,3.10
2022-08-03T23:11:46.114Z,2.90
2022-08-03T23:14:19.771Z,3.30
2022-08-03T23:16:52.275Z,3.40
2022-08-03T23:19:26.766Z,3.30
2022-08-03T23:22:05.711Z,3.10
2022-08-03T23:24:38.179Z,2.50
2022-08-03T23:27:10.702Z,2.40
2022-08-03T23:29:43.923Z,2.70
2022-08-03T23:32:16.023Z,2.50
2022-08-03T23:35:06.574Z,2.80
2022-08-03T23:38:22.189Z,2.80
2022-08-03T23:40:31.250Z,2.80
2022-08-03T23:43:03.944Z,2.80
2022-08-03T23:45:37.770Z,2.80
2022-08-03T23:48:09.210Z,2.80
2022-08-03T23:50:46.563Z,3.20
2022-08-03T23:53:23.351Z,3.10
2022-08-03T23:56:04.821Z,3.00
2022-08-03T23:58:47.535Z,2.90
